createdAt,value
2022-12-13T00:02:01.431Z,100111.72
2022-12-13T00:05:04.427Z,100112.50
2022-12-13T00:08:06.975Z,100126.06
2022-12-13T00:11:12.616Z,100125.69
2022-12-13T00:14:15.109Z,100128.72
2022-12-13T00:17:18.022Z,100123.31
2022-12-13T00:20:21.364Z,100124.22
2022-12-13T00:23:24.742Z,100132.31
2022-12-13T00:26:29.824Z,100132.94
2022-12-13T00:29:33.067Z,100125.19
2022-12-13T00:32:35.687Z,100128.19
2022-12-13T00:35:41.897Z,100126.03
2022-12-13T00:38:44.868Z,100124.34
2022-12-13T00:41:47.634Z,100126.88
2022-12-13T00:44:50.089Z,100139.97
2022-12-13T00:47:52.908Z,100135.59
2022-12-13T00:50:55.867Z,100138.47
2022-12-13T00:53:59.153Z,100144.16
2022-12-13T00:57:01.896Z,100140.09
2022-12-13T01:00:07.066Z,100141.22
2022-12-13T01:03:20.763Z,100138.69
2022-12-13T01:06:28.715Z,100142.78
2022-12-13T01:09:32.590Z,100135.53
2022-12-13T01:12:35.733Z,100142.31
2022-12-13T01:15:42.802Z,100138.00
2022-12-13T01:18:46.050Z,100135.06
2022-12-13T01:21:49.039Z,100132.03
2022-12-13T01:24:51.741Z,100143.34
2022-12-13T01:27:54.242Z,100147.22
2022-12-13T01:30:58.308Z,100150.16
2022-12-13T01:34:00.794Z,100143.53
2022-12-13T01:37:03.534Z,100149.44
2022-12-13T01:40:15.722Z,100141.87
2022-12-13T01:43:19.553Z,100146.94
2022-12-13T01:46:22.061Z,100145.91
2022-12-13T01:49:25.260Z,100149.75
2022-12-13T01:52:30.358Z,100141.53
2022-12-13T01:55:41.597Z,100145.81
2022-12-13T01:58:45.769Z,100131.28
2022-12-13T02:01:50.150Z,100137.47
2022-12-13T02:04:54.892Z,100144.31
2022-12-13T02:07:58.285Z,100141.97
2022-12-13T02:11:01.944Z,100142.09
2022-12-13T02:14:05.568Z,100143.34
2022-12-13T02:17:20.902Z,100146.22
2022-12-13T02:20:40.624Z,100140.78
2022-12-13T02:24:01.218Z,100143.03
2022-12-13T02:27:43.531Z,100144.66
2022-12-13T02:31:26.657Z,100144.31
2022-12-13T02:35:06.419Z,100143.19
2022-12-13T02:38:17.733Z,100135.87
2022-12-13T02:41:42.954Z,100146.72
2022-12-13T02:44:57.613Z,100147.44
2022-12-13T02:48:02.110Z,100145.87
2022-12-13T02:51:07.510Z,100146.19
2022-12-13T02:54:10.039Z,100147.72
2022-12-13T02:57:36.978Z,100140.28
2022-12-13T03:00:42.764Z,100140.66
2022-12-13T03:03:52.796Z,100142.88
2022-12-13T03:07:18.108Z,100139.47
2022-12-13T03:10:30.698Z,100148.69
2022-12-13T03:13:53.370Z,100144.47
2022-12-13T03:16:56.206Z,100159.37
2022-12-13T03:19:58.850Z,100152.81
2022-12-13T03:23:01.726Z,100147.47
2022-12-13T03:26:13.457Z,100149.25
2022-12-13T03:29:23.860Z,100156.53
2022-12-13T03:32:27.255Z,100146.06
2022-12-13T03:35:34.945Z,100154.81
2022-12-13T03:38:49.276Z,100158.91
2022-12-13T03:41:52.105Z,100161.19
2022-12-13T03:44:54.613Z,100158.34
2022-12-13T03:47:57.334Z,100160.50
2022-12-13T03:50:59.937Z,100151.31
2022-12-13T03:54:02.760Z,100157.72
2022-12-13T03:57:05.276Z,100159.00
2022-12-13T04:00:08.739Z,100159.53
2022-12-13T04:03:16.608Z,100156.66
2022-12-13T04:06:21.920Z,100155.94
2022-12-13T04:09:25.611Z,100161.03
2022-12-13T04:12:48.664Z,100157.25
2022-12-13T04:15:51.287Z,100154.19
2022-12-13T04:18:54.175Z,100165.16
2022-12-13T04:21:56.625Z,100160.53
2022-12-13T04:24:59.465Z,100159.25
2022-12-13T04:28:02.022Z,100152.66
2022-12-13T04:31:05.115Z,100147.84
2022-12-13T04:34:07.973Z,100147.44
2022-12-13T04:37:10.749Z,100132.47
2022-12-13T04:40:14.188Z,100142.78
2022-12-13T04:43:24.598Z,100135.81
2022-12-13T04:46:27.065Z,100141.66
2022-12-13T04:49:30.661Z,100137.00
2022-12-13T04:52:33.640Z,100137.50
2022-12-13T04:55:37.314Z,100134.66
2022-12-13T04:58:40.102Z,100139.06
2022-12-13T05:01:42.960Z,100139.75
2022-12-13T05:04:46.250Z,100137.53
2022-12-13T05:07:56.824Z,100138.38
2022-12-13T05:10:59.445Z,100138.28
2022-12-13T05:14:02.407Z,100144.41
2022-12-13T05:17:04.972Z,100140.09
2022-12-13T05:20:08.582Z,100146.38
2022-12-13T05:23:11.309Z,100140.78
2022-12-13T05:26:14.209Z,100143.25
2022-12-13T05:29:16.757Z,100136.22
2022-12-13T05:32:19.504Z,100135.87
2022-12-13T05:35:23.757Z,100140.47
2022-12-13T05:38:26.760Z,100131.72
2022-12-13T05:41:32.704Z,100133.03
2022-12-13T05:44:35.779Z,100139.50
2022-12-13T05:47:38.229Z,100141.28
2022-12-13T05:50:41.483Z,100137.38
2022-12-13T05:53:46.191Z,100140.50
2022-12-13T05:56:51.558Z,100150.78
2022-12-13T05:59:54.146Z,100141.87
2022-12-13T06:02:57.051Z,100150.53
2022-12-13T06:06:04.810Z,100152.94
2022-12-13T06:09:07.818Z,100148.75
2022-12-13T06:12:30.944Z,100149.91
2022-12-13T06:15:34.616Z,100155.31
2022-12-13T06:18:38.023Z,100161.44
2022-12-13T06:21:45.791Z,100170.94
2022-12-13T06:24:49.276Z,100157.19
2022-12-13T06:27:53.358Z,100160.28
2022-12-13T06:31:00.181Z,100169.78
2022-12-13T06:34:14.262Z,100167.62
2022-12-13T06:40:23.198Z,100170.41
2022-12-13T06:43:26.258Z,100178.34
2022-12-13T06:46:28.928Z,100177.28
2022-12-13T06:49:33.022Z,100182.19
2022-12-13T06:52:36.252Z,100176.16
2022-12-13T06:55:39.246Z,100182.28
2022-12-13T06:58:42.986Z,100176.06
2022-12-13T07:01:50.444Z,100182.91
2022-12-13T07:04:54.861Z,100175.63
2022-12-13T07:08:01.381Z,100180.06
2022-12-13T07:11:05.339Z,100185.22
2022-12-13T07:14:09.409Z,100184.22
2022-12-13T07:17:12.343Z,100190.84
2022-12-13T07:20:16.171Z,100195.28
2022-12-13T07:23:18.897Z,100190.19
2022-12-13T07:26:28.652Z,100200.22
2022-12-13T07:29:31.849Z,100195.44
2022-12-13T07:32:35.190Z,100194.19
2022-12-13T07:35:38.643Z,100193.78
2022-12-13T07:38:42.315Z,100208.28
2022-12-13T07:41:48.188Z,100196.63
2022-12-13T07:44:51.771Z,100200.13
2022-12-13T07:47:54.362Z,100195.84
2022-12-13T07:51:05.809Z,100194.72
2022-12-13T07:54:08.752Z,100194.47
2022-12-13T07:57:11.600Z,100190.72
2022-12-13T08:00:15.200Z,100195.63
2022-12-13T08:03:24.913Z,100194.00
2022-12-13T08:06:28.961Z,100193.37
2022-12-13T08:09:32.062Z,100198.22
2022-12-13T08:12:34.796Z,100195.59
2022-12-13T08:15:37.638Z,100190.97
2022-12-13T08:18:40.395Z,100197.47
2022-12-13T08:22:01.839Z,100194.44
2022-12-13T08:25:06.567Z,100196.22
2022-12-13T08:28:09.777Z,100197.91
2022-12-13T08:31:13.293Z,100205.44
2022-12-13T08:34:17.503Z,100204.03
2022-12-13T08:37:20.326Z,100207.75
2022-12-13T08:40:24.750Z,100200.84
2022-12-13T08:43:27.257Z,100205.81
2022-12-13T08:46:30.203Z,100210.56
2022-12-13T08:49:32.913Z,100209.28
2022-12-13T08:52:39.812Z,100201.25
2022-12-13T08:55:43.773Z,100199.28
2022-12-13T08:58:50.096Z,100196.34
2022-12-13T09:01:54.242Z,100191.44
2022-12-13T09:04:58.908Z,100189.34
2022-12-13T09:08:22.907Z,100194.81
2022-12-13T09:11:36.461Z,100154.78
2022-12-13T09:14:45.759Z,100164.94
2022-12-13T09:17:52.130Z,100188.41
2022-12-13T09:21:11.213Z,100177.34
2022-12-13T09:24:24.612Z,100172.72
2022-12-13T09:27:28.372Z,100175.91
2022-12-13T09:30:32.000Z,100165.41
2022-12-13T09:33:41.305Z,100170.19
2022-12-13T09:36:44.650Z,100164.69
2022-12-13T09:39:47.857Z,100174.25
2022-12-13T09:43:13.390Z,100173.69
2022-12-13T09:46:34.915Z,100169.81
2022-12-13T09:49:51.806Z,100165.34
2022-12-13T09:52:59.957Z,100163.50
2022-12-13T09:56:10.600Z,100153.69
2022-12-13T09:59:14.466Z,100156.97
2022-12-13T10:02:23.484Z,100158.81
2022-12-13T10:05:37.115Z,100152.69
2022-12-13T10:08:50.053Z,100149.09
2022-12-13T10:12:00.691Z,100154.44
2022-12-13T10:15:03.696Z,100141.72
2022-12-13T10:18:07.421Z,100144.53
2022-12-13T10:21:13.024Z,100133.19
2022-12-13T10:24:32.845Z,100131.44
2022-12-13T10:27:41.229Z,100139.72
2022-12-13T10:30:50.969Z,100133.97
2022-12-13T10:33:55.895Z,100127.94
2022-12-13T10:36:59.823Z,100125.44
2022-12-13T10:40:04.072Z,100125.69
2022-12-13T10:43:24.018Z,100131.47
2022-12-13T10:46:31.224Z,100125.66
2022-12-13T10:49:59.076Z,100127.88
2022-12-13T10:53:02.294Z,100125.78
2022-12-13T10:56:05.719Z,100119.88
2022-12-13T10:59:23.546Z,100107.50
2022-12-13T11:02:32.522Z,100117.31
2022-12-13T11:05:36.212Z,100109.44
2022-12-13T11:08:39.035Z,100098.19
2022-12-13T11:11:41.741Z,100100.12
2022-12-13T11:15:05.328Z,100099.22
2022-12-13T11:18:19.527Z,100093.53
2022-12-13T11:21:26.245Z,100092.53
2022-12-13T11:24:32.162Z,100086.41
2022-12-13T11:27:45.651Z,100087.38
2022-12-13T11:31:28.855Z,100087.16
2022-12-13T11:34:57.711Z,100077.00
2022-12-13T11:38:23.803Z,100075.38
2022-12-13T11:41:33.251Z,100078.97
2022-12-13T11:44:54.538Z,100074.50
2022-12-13T11:47:58.366Z,100071.22
2022-12-13T11:51:01.317Z,100064.97
2022-12-13T11:54:09.119Z,100068.84
2022-12-13T11:57:45.389Z,100068.44
2022-12-13T12:00:54.785Z,100064.97
2022-12-13T12:04:25.103Z,100053.28
2022-12-13T12:08:05.347Z,100051.84
2022-12-13T12:11:15.059Z,100055.28
2022-12-13T12:14:29.781Z,100048.13
2022-12-13T12:17:37.866Z,100047.34
2022-12-13T12:20:52.025Z,100050.09
2022-12-13T12:24:01.066Z,100042.69
2022-12-13T12:27:22.608Z,100051.44
2022-12-13T12:30:37.512Z,100040.69
2022-12-13T12:34:17.336Z,100045.25
2022-12-13T12:37:41.929Z,100046.81
2022-12-13T12:44:38.039Z,100037.19
2022-12-13T12:51:59.830Z,100035.41
2022-12-13T12:55:17.462Z,100039.25
2022-12-13T12:58:29.416Z,100049.16
2022-12-13T13:01:43.489Z,100045.38
2022-12-13T13:04:54.702Z,100044.44
2022-12-13T13:08:05.807Z,100055.72
2022-12-13T13:11:24.966Z,100051.53
2022-12-13T13:14:32.962Z,100053.41
2022-12-13T13:17:35.921Z,100055.97
2022-12-13T13:20:39.993Z,100045.28
2022-12-13T13:23:47.099Z,100047.72
2022-12-13T13:27:00.521Z,100050.28
2022-12-13T13:30:21.551Z,100054.03
2022-12-13T13:33:48.739Z,100052.00
2022-12-13T13:36:53.538Z,100057.03
2022-12-13T13:40:29.897Z,100060.28
2022-12-13T13:43:33.897Z,100053.19
2022-12-13T13:47:16.145Z,100059.47
2022-12-13T13:50:30.388Z,100047.78
2022-12-13T13:53:51.609Z,100057.31
2022-12-13T13:57:33.344Z,100044.84
2022-12-13T14:01:20.216Z,100045.47
2022-12-13T14:04:37.883Z,100041.63
2022-12-13T14:08:20.485Z,100039.09
2022-12-13T14:11:48.630Z,100036.38
2022-12-13T14:15:35.931Z,100042.41
2022-12-13T14:18:58.330Z,100047.37
2022-12-13T14:22:16.344Z,100061.31
2022-12-13T14:25:34.113Z,100056.44
2022-12-13T14:29:02.987Z,100058.81
2022-12-13T14:32:26.693Z,100060.22
2022-12-13T14:35:31.725Z,100057.22
2022-12-13T14:38:34.529Z,100051.16
2022-12-13T14:41:46.708Z,100059.00
2022-12-13T14:44:49.522Z,100051.88
2022-12-13T14:48:00.241Z,100062.28
2022-12-13T14:51:05.095Z,100066.09
2022-12-13T14:54:08.158Z,100061.66
2022-12-13T14:57:17.357Z,100067.53
2022-12-13T15:00:35.532Z,100074.50
2022-12-13T15:03:39.363Z,100069.81
2022-12-13T15:06:41.930Z,100082.94
2022-12-13T15:09:56.140Z,100081.00
2022-12-13T15:12:58.805Z,100081.50
2022-12-13T15:16:10.318Z,100079.59
2022-12-13T15:19:29.627Z,100083.47
2022-12-13T15:22:45.072Z,100079.62
2022-12-13T15:26:28.391Z,100089.72
2022-12-13T15:29:33.386Z,100101.28
2022-12-13T15:32:36.752Z,100100.94
2022-12-13T15:35:40.275Z,100097.06
2022-12-13T15:39:00.798Z,100089.91
2022-12-13T15:42:04.093Z,100094.16
2022-12-13T15:45:17.900Z,100091.09
2022-12-13T15:48:33.316Z,100074.03
2022-12-13T15:52:04.904Z,100084.94
2022-12-13T15:55:08.378Z,100088.41
2022-12-13T15:58:27.527Z,100084.75
2022-12-13T16:01:34.243Z,100080.31
2022-12-13T16:04:37.463Z,100084.56
2022-12-13T16:07:40.185Z,100079.94
2022-12-13T16:10:49.189Z,100087.78
2022-12-13T16:13:51.922Z,100078.22
2022-12-13T16:17:13.045Z,100078.03
2022-12-13T16:20:19.510Z,100084.31
2022-12-13T16:23:27.007Z,100078.34
2022-12-13T16:26:31.257Z,100074.81
2022-12-13T16:29:34.376Z,100080.78
2022-12-13T16:33:02.799Z,100072.84
2022-12-13T16:35:59.776Z,100074.44
2022-12-13T16:39:04.124Z,100077.03
2022-12-13T16:42:09.514Z,100085.63
2022-12-13T16:45:40.983Z,100086.69
2022-12-13T16:48:35.921Z,100097.03
2022-12-13T16:51:43.640Z,100089.78
2022-12-13T16:54:51.276Z,100097.47
2022-12-13T16:58:09.975Z,100090.28
2022-12-13T17:01:15.823Z,100100.31
2022-12-13T17:04:22.490Z,100089.62
2022-12-13T17:07:25.379Z,100100.22
2022-12-13T17:10:30.912Z,100099.47
2022-12-13T17:13:34.065Z,100101.63
2022-12-13T17:16:36.830Z,100096.25
2022-12-13T17:19:39.933Z,100098.09
2022-12-13T17:22:43.578Z,100103.44
2022-12-13T17:25:47.107Z,100101.00
2022-12-13T17:29:01.479Z,100106.31
2022-12-13T17:32:04.809Z,100103.62
2022-12-13T17:35:11.958Z,100102.59
2022-12-13T17:38:18.117Z,100112.28
2022-12-13T17:41:25.107Z,100108.03
2022-12-13T17:44:28.432Z,100106.88
2022-12-13T17:47:32.771Z,100104.06
2022-12-13T17:50:38.117Z,100100.28
2022-12-13T17:53:49.194Z,100098.50
2022-12-13T17:56:53.531Z,100100.09
2022-12-13T17:59:57.233Z,100096.38
2022-12-13T18:03:20.243Z,100099.91
2022-12-13T18:06:42.977Z,100101.25
2022-12-13T18:09:45.924Z,100089.19
2022-12-13T18:12:48.712Z,100087.47
2022-12-13T18:15:51.791Z,100089.38
2022-12-13T18:18:55.909Z,100085.84
2022-12-13T18:22:01.480Z,100084.63
2022-12-13T18:25:04.724Z,100081.25
2022-12-13T18:28:11.450Z,100090.41
2022-12-13T18:31:18.757Z,100093.09
2022-12-13T18:34:21.597Z,100083.75
2022-12-13T18:37:24.663Z,100097.66
2022-12-13T18:40:29.272Z,100086.94
2022-12-13T18:43:32.406Z,100093.94
2022-12-13T18:46:36.648Z,100096.88
2022-12-13T18:49:39.939Z,100090.47
2022-12-13T18:52:43.802Z,100091.16
2022-12-13T18:55:46.818Z,100094.53
2022-12-13T18:58:50.252Z,100090.94
2022-12-13T19:01:55.205Z,100086.03
2022-12-13T19:04:58.196Z,100098.41
2022-12-13T19:08:01.246Z,100103.81
2022-12-13T19:11:08.489Z,100095.22
2022-12-13T19:14:11.342Z,100103.47
2022-12-13T19:17:14.248Z,100099.94
2022-12-13T19:20:18.281Z,100104.50
2022-12-13T19:23:21.618Z,100109.47
2022-12-13T19:26:26.672Z,100116.69
2022-12-13T19:29:29.414Z,100108.84
2022-12-13T19:32:33.167Z,100098.47
2022-12-13T19:35:36.390Z,100108.94
2022-12-13T19:38:40.230Z,100107.66
2022-12-13T19:41:43.426Z,100097.13
2022-12-13T19:44:47.853Z,100091.69
2022-12-13T19:47:50.522Z,100092.41
2022-12-13T19:51:00.278Z,100069.03
2022-12-13T19:54:03.115Z,100102.63
2022-12-13T19:57:07.523Z,100108.50
2022-12-13T20:00:11.759Z,100111.69
2022-12-13T20:03:36.283Z,100111.78
2022-12-13T20:06:58.653Z,100107.78
2022-12-13T20:10:21.362Z,100108.88
2022-12-13T20:13:43.743Z,100108.19
2022-12-13T20:17:06.485Z,100112.59
2022-12-13T20:20:41.112Z,100100.31
2022-12-13T20:23:51.673Z,100103.56
2022-12-13T20:26:56.086Z,100105.22
2022-12-13T20:29:59.188Z,100106.88
2022-12-13T20:33:01.974Z,100098.09
2022-12-13T20:36:30.354Z,100099.19
2022-12-13T20:39:33.266Z,100102.38
2022-12-13T20:42:36.076Z,100097.00
2022-12-13T20:45:38.858Z,100093.22
2022-12-13T20:48:45.444Z,100089.72
2022-12-13T20:51:47.966Z,100083.50
2022-12-13T20:54:51.402Z,100072.72
2022-12-13T20:57:54.209Z,100073.41
2022-12-13T21:00:57.339Z,100075.91
2022-12-13T21:04:01.322Z,100083.41
2022-12-13T21:07:05.010Z,100079.62
2022-12-13T21:10:08.144Z,100074.84
2022-12-13T21:13:11.073Z,100064.28
2022-12-13T21:16:14.227Z,100065.56
2022-12-13T21:19:25.118Z,100061.41
2022-12-13T21:22:27.653Z,100061.47
2022-12-13T21:25:30.725Z,100064.78
2022-12-13T21:28:33.512Z,100059.09
2022-12-13T21:31:37.253Z,100058.59
2022-12-13T21:34:40.043Z,100053.59
2022-12-13T21:37:43.007Z,100054.69
2022-12-13T21:40:50.975Z,100043.47
2022-12-13T21:43:54.386Z,100046.75
2022-12-13T21:47:13.363Z,100042.06
2022-12-13T21:50:16.714Z,100038.47
2022-12-13T21:53:19.148Z,100034.38
2022-12-13T21:56:42.649Z,100036.25
2022-12-13T21:59:45.985Z,100037.25
2022-12-13T22:02:48.769Z,100053.66
2022-12-13T22:05:51.506Z,100050.97
2022-12-13T22:08:54.118Z,100045.19
2022-12-13T22:11:57.658Z,100038.59
2022-12-13T22:15:00.360Z,100050.91
2022-12-13T22:18:03.131Z,100045.13
2022-12-13T22:21:05.846Z,100046.53
2022-12-13T22:24:09.160Z,100051.78
2022-12-13T22:27:11.702Z,100038.03
2022-12-13T22:30:14.551Z,100037.06
2022-12-13T22:33:17.012Z,100034.19
2022-12-13T22:36:19.817Z,100028.59
2022-12-13T22:39:24.067Z,100025.91
2022-12-13T22:42:26.905Z,100023.81
2022-12-13T22:45:29.430Z,100018.22
2022-12-13T22:48:32.730Z,100015.41
2022-12-13T22:51:35.497Z,100018.09
2022-12-13T22:54:38.272Z,100010.81
2022-12-13T22:57:42.331Z,99995.97
2022-12-13T23:00:51.376Z,99996.34
2022-12-13T23:03:54.196Z,99996.94
2022-12-13T23:06:56.941Z,99996.75
2022-12-13T23:09:59.485Z,100000.19
2022-12-13T23:13:02.282Z,99996.28
2022-12-13T23:16:06.951Z,99992.00
2022-12-13T23:19:40.544Z,99988.41
2022-12-13T23:22:34.477Z,99988.16
2022-12-13T23:25:37.206Z,99984.94
2022-12-13T23:28:40.831Z,99986.59
2022-12-13T23:31:48.775Z,99981.25
2022-12-13T23:34:51.673Z,99971.53
2022-12-13T23:37:54.402Z,99968.06
2022-12-13T23:41:02.748Z,99960.63
2022-12-13T23:44:05.671Z,99962.16
2022-12-13T23:47:08.158Z,99958.75
2022-12-13T23:50:11.072Z,99950.75
2022-12-13T23:53:13.761Z,99958.34
2022-12-13T23:56:17.185Z,99952.38
2022-12-13T23:59:19.730Z,99959.09
